<?xml version="1.0" encoding="UTF-8" standalone="no" ?>
<gpx xmlns="http://www.topografix.com/GPX/1/1" xmlns:xsi="http://www.w3.org/2001/XMLSchema-instance" xsi:schemaLocation="http://www.topografix.com/GPX/1/1 http://www.topografix.com/GPX/1/1/gpx.xsd" version="1.1" creator="VisuGPX - https://www.visugpx.com">
  <metadata>
    <name>HENNEBONT</name>
    <desc><![CDATA[Parking le long du Blavet coté rempart]]></desc>
  </metadata>
  <trk>
    <name><![CDATA[HENNEBONT_1]]></name>
    <trkseg>
      <trkpt lat="47.80489" lon="-3.28193">
        <ele>-56</ele>
        <time>2012-11-14T13:27:13</time>
      </trkpt>
      <trkpt lat="47.80489" lon="-3.28193">
        <ele>-56</ele>
        <time>2012-11-14T13:27:43</time>
      </trkpt>
      <trkpt lat="47.80488" lon="-3.28192">
        <ele>-56</ele>
        <time>2012-11-14T13:28:13</time>
      </trkpt>
      <trkpt lat="47.80488" lon="-3.28194">
        <ele>-56</ele>
        <time>2012-11-14T13:28:43</time>
      </trkpt>
      <trkpt lat="47.80488" lon="-3.28193">
        <ele>-56</ele>
        <time>2012-11-14T13:29:13</time>
      </trkpt>
      <trkpt lat="47.80488" lon="-3.28191">
        <ele>-56</ele>
        <time>2012-11-14T13:29:43</time>
      </trkpt>
      <trkpt lat="47.80487" lon="-3.28191">
        <ele>-56</ele>
        <time>2012-11-14T13:30:14</time>
      </trkpt>
      <trkpt lat="47.80487" lon="-3.28192">
        <ele>-56</ele>
        <time>2012-11-14T13:30:44</time>
      </trkpt>
      <trkpt lat="47.80499" lon="-3.28206">
        <ele>-56</ele>
        <time>2012-11-14T13:31:14</time>
      </trkpt>
      <trkpt lat="47.80502" lon="-3.28213">
        <ele>-56</ele>
        <time>2012-11-14T13:31:44</time>
      </trkpt>
      <trkpt lat="47.80519" lon="-3.28228">
        <ele>-56</ele>
        <time>2012-11-14T13:32:14</time>
      </trkpt>
      <trkpt lat="47.80554" lon="-3.28212">
        <ele>-56</ele>
        <time>2012-11-14T13:32:44</time>
      </trkpt>
      <trkpt lat="47.80586" lon="-3.28185">
        <ele>-56</ele>
        <time>2012-11-14T13:33:15</time>
      </trkpt>
      <trkpt lat="47.80614" lon="-3.28156">
        <ele>-56</ele>
        <time>2012-11-14T13:33:45</time>
      </trkpt>
      <trkpt lat="47.80645" lon="-3.28128">
        <ele>-56</ele>
        <time>2012-11-14T13:34:15</time>
      </trkpt>
      <trkpt lat="47.80672" lon="-3.28101">
        <ele>-57</ele>
        <time>2012-11-14T13:34:45</time>
      </trkpt>
      <trkpt lat="47.80699" lon="-3.28077">
        <ele>-56</ele>
        <time>2012-11-14T13:35:15</time>
      </trkpt>
      <trkpt lat="47.80728" lon="-3.28063">
        <ele>-56</ele>
        <time>2012-11-14T13:35:45</time>
      </trkpt>
      <trkpt lat="47.80765" lon="-3.28024">
        <ele>-57</ele>
        <time>2012-11-14T13:36:16</time>
      </trkpt>
      <trkpt lat="47.80798" lon="-3.27976">
        <ele>-56</ele>
        <time>2012-11-14T13:36:46</time>
      </trkpt>
      <trkpt lat="47.80832" lon="-3.27936">
        <ele>-55</ele>
        <time>2012-11-14T13:37:16</time>
      </trkpt>
      <trkpt lat="47.80867" lon="-3.27913">
        <ele>-56</ele>
        <time>2012-11-14T13:37:46</time>
      </trkpt>
      <trkpt lat="47.80907" lon="-3.27911">
        <ele>-55</ele>
        <time>2012-11-14T13:38:16</time>
      </trkpt>
      <trkpt lat="47.80941" lon="-3.27929">
        <ele>-55</ele>
        <time>2012-11-14T13:38:46</time>
      </trkpt>
      <trkpt lat="47.80973" lon="-3.27959">
        <ele>-56</ele>
        <time>2012-11-14T13:39:17</time>
      </trkpt>
      <trkpt lat="47.81009" lon="-3.27986">
        <ele>-55</ele>
        <time>2012-11-14T13:39:47</time>
      </trkpt>
      <trkpt lat="47.81039" lon="-3.28014">
        <ele>-56</ele>
        <time>2012-11-14T13:40:17</time>
      </trkpt>
      <trkpt lat="47.81075" lon="-3.28045">
        <ele>-56</ele>
        <time>2012-11-14T13:40:47</time>
      </trkpt>
      <trkpt lat="47.81105" lon="-3.28081">
        <ele>-55</ele>
        <time>2012-11-14T13:41:17</time>
      </trkpt>
      <trkpt lat="47.81139" lon="-3.28118">
        <ele>-55</ele>
        <time>2012-11-14T13:41:48</time>
      </trkpt>
      <trkpt lat="47.81174" lon="-3.28143">
        <ele>-56</ele>
        <time>2012-11-14T13:42:18</time>
      </trkpt>
      <trkpt lat="47.81205" lon="-3.2817">
        <ele>-56</ele>
        <time>2012-11-14T13:42:48</time>
      </trkpt>
      <trkpt lat="47.81241" lon="-3.28206">
        <ele>-56</ele>
        <time>2012-11-14T13:43:18</time>
      </trkpt>
      <trkpt lat="47.81278" lon="-3.28231">
        <ele>-57</ele>
        <time>2012-11-14T13:43:48</time>
      </trkpt>
      <trkpt lat="47.8131" lon="-3.2826">
        <ele>-56</ele>
        <time>2012-11-14T13:44:18</time>
      </trkpt>
      <trkpt lat="47.81347" lon="-3.28284">
        <ele>-55</ele>
        <time>2012-11-14T13:44:49</time>
      </trkpt>
      <trkpt lat="47.81385" lon="-3.28308">
        <ele>-55</ele>
        <time>2012-11-14T13:45:19</time>
      </trkpt>
      <trkpt lat="47.81421" lon="-3.28336">
        <ele>-55</ele>
        <time>2012-11-14T13:45:49</time>
      </trkpt>
      <trkpt lat="47.81459" lon="-3.28349">
        <ele>-56</ele>
        <time>2012-11-14T13:46:19</time>
      </trkpt>
      <trkpt lat="47.81498" lon="-3.28352">
        <ele>-56</ele>
        <time>2012-11-14T13:46:50</time>
      </trkpt>
      <trkpt lat="47.81536" lon="-3.2835">
        <ele>-56</ele>
        <time>2012-11-14T13:47:20</time>
      </trkpt>
      <trkpt lat="47.81576" lon="-3.28327">
        <ele>-56</ele>
        <time>2012-11-14T13:47:50</time>
      </trkpt>
      <trkpt lat="47.81613" lon="-3.28298">
        <ele>-57</ele>
        <time>2012-11-14T13:48:20</time>
      </trkpt>
      <trkpt lat="47.81623" lon="-3.28288">
        <ele>-57</ele>
        <time>2012-11-14T13:48:50</time>
      </trkpt>
      <trkpt lat="47.81632" lon="-3.28254">
        <ele>-57</ele>
        <time>2012-11-14T13:49:20</time>
      </trkpt>
      <trkpt lat="47.81638" lon="-3.28213">
        <ele>-55</ele>
        <time>2012-11-14T13:49:51</time>
      </trkpt>
      <trkpt lat="47.81628" lon="-3.28185">
        <ele>-52</ele>
        <time>2012-11-14T13:50:21</time>
      </trkpt>
      <trkpt lat="47.81594" lon="-3.28162">
        <ele>-51</ele>
        <time>2012-11-14T13:50:51</time>
      </trkpt>
      <trkpt lat="47.81562" lon="-3.28142">
        <ele>-50</ele>
        <time>2012-11-14T13:51:21</time>
      </trkpt>
      <trkpt lat="47.8153" lon="-3.28117">
        <ele>-48</ele>
        <time>2012-11-14T13:51:51</time>
      </trkpt>
      <trkpt lat="47.81502" lon="-3.2809">
        <ele>-48</ele>
        <time>2012-11-14T13:52:22</time>
      </trkpt>
      <trkpt lat="47.81474" lon="-3.28062">
        <ele>-46</ele>
        <time>2012-11-14T13:52:52</time>
      </trkpt>
      <trkpt lat="47.81467" lon="-3.28028">
        <ele>-44</ele>
        <time>2012-11-14T13:53:22</time>
      </trkpt>
      <trkpt lat="47.81494" lon="-3.28046">
        <ele>-40</ele>
        <time>2012-11-14T13:53:52</time>
      </trkpt>
      <trkpt lat="47.81525" lon="-3.28064">
        <ele>-38</ele>
        <time>2012-11-14T13:54:22</time>
      </trkpt>
      <trkpt lat="47.81554" lon="-3.28065">
        <ele>-39</ele>
        <time>2012-11-14T13:54:52</time>
      </trkpt>
      <trkpt lat="47.81587" lon="-3.28055">
        <ele>-33</ele>
        <time>2012-11-14T13:55:23</time>
      </trkpt>
      <trkpt lat="47.81622" lon="-3.28049">
        <ele>-31</ele>
        <time>2012-11-14T13:55:53</time>
      </trkpt>
      <trkpt lat="47.81652" lon="-3.28028">
        <ele>-28</ele>
        <time>2012-11-14T13:56:23</time>
      </trkpt>
      <trkpt lat="47.81681" lon="-3.28003">
        <ele>-26</ele>
        <time>2012-11-14T13:56:53</time>
      </trkpt>
      <trkpt lat="47.81703" lon="-3.27983">
        <ele>-21</ele>
        <time>2012-11-14T13:57:23</time>
      </trkpt>
      <trkpt lat="47.81722" lon="-3.27972">
        <ele>-16</ele>
        <time>2012-11-14T13:57:53</time>
      </trkpt>
      <trkpt lat="47.81744" lon="-3.27958">
        <ele>-12</ele>
        <time>2012-11-14T13:58:24</time>
      </trkpt>
      <trkpt lat="47.81765" lon="-3.27945">
        <ele>-9</ele>
        <time>2012-11-14T13:58:54</time>
      </trkpt>
      <trkpt lat="47.81778" lon="-3.27936">
        <ele>-9</ele>
        <time>2012-11-14T13:59:24</time>
      </trkpt>
      <trkpt lat="47.81787" lon="-3.27932">
        <ele>-10</ele>
        <time>2012-11-14T13:59:54</time>
      </trkpt>
      <trkpt lat="47.81791" lon="-3.27936">
        <ele>-12</ele>
        <time>2012-11-14T14:00:24</time>
      </trkpt>
      <trkpt lat="47.81789" lon="-3.27937">
        <ele>-10</ele>
        <time>2012-11-14T14:00:55</time>
      </trkpt>
      <trkpt lat="47.818" lon="-3.27936">
        <ele>-11</ele>
        <time>2012-11-14T14:01:25</time>
      </trkpt>
      <trkpt lat="47.81814" lon="-3.27904">
        <ele>-8</ele>
        <time>2012-11-14T14:01:55</time>
      </trkpt>
      <trkpt lat="47.8182" lon="-3.27869">
        <ele>-4</ele>
        <time>2012-11-14T14:02:25</time>
      </trkpt>
      <trkpt lat="47.8183" lon="-3.27835">
        <ele>-2</ele>
        <time>2012-11-14T14:02:55</time>
      </trkpt>
      <trkpt lat="47.81846" lon="-3.27796">
        <ele>-2</ele>
        <time>2012-11-14T14:03:25</time>
      </trkpt>
      <trkpt lat="47.81867" lon="-3.27758">
        <ele>-4</ele>
        <time>2012-11-14T14:03:56</time>
      </trkpt>
      <trkpt lat="47.81874" lon="-3.2772">
        <ele>44.7</ele>
        <time>2012-11-14T14:04:26</time>
      </trkpt>
      <trkpt lat="47.81878" lon="-3.27679">
        <ele>1</ele>
        <time>2012-11-14T14:04:56</time>
      </trkpt>
      <trkpt lat="47.81894" lon="-3.27645">
        <ele>-5</ele>
        <time>2012-11-14T14:05:26</time>
      </trkpt>
      <trkpt lat="47.81913" lon="-3.27629">
        <ele>-4</ele>
        <time>2012-11-14T14:05:56</time>
      </trkpt>
      <trkpt lat="47.81938" lon="-3.27602">
        <ele>-6</ele>
        <time>2012-11-14T14:06:27</time>
      </trkpt>
      <trkpt lat="47.81967" lon="-3.2758">
        <ele>-9</ele>
        <time>2012-11-14T14:06:57</time>
      </trkpt>
      <trkpt lat="47.81992" lon="-3.27551">
        <ele>-12</ele>
        <time>2012-11-14T14:07:27</time>
      </trkpt>
      <trkpt lat="47.8202" lon="-3.27529">
        <ele>-11</ele>
        <time>2012-11-14T14:07:57</time>
      </trkpt>
      <trkpt lat="47.82051" lon="-3.27499">
        <ele>-11</ele>
        <time>2012-11-14T14:08:28</time>
      </trkpt>
      <trkpt lat="47.8207" lon="-3.27468">
        <ele>-11</ele>
        <time>2012-11-14T14:08:58</time>
      </trkpt>
      <trkpt lat="47.82063" lon="-3.27433">
        <ele>-8</ele>
        <time>2012-11-14T14:09:28</time>
      </trkpt>
      <trkpt lat="47.8205" lon="-3.27394">
        <ele>-6</ele>
        <time>2012-11-14T14:09:58</time>
      </trkpt>
      <trkpt lat="47.82044" lon="-3.27348">
        <ele>-6</ele>
        <time>2012-11-14T14:10:28</time>
      </trkpt>
      <trkpt lat="47.82037" lon="-3.27292">
        <ele>-8</ele>
        <time>2012-11-14T14:10:58</time>
      </trkpt>
      <trkpt lat="47.82035" lon="-3.27244">
        <ele>-8</ele>
        <time>2012-11-14T14:11:28</time>
      </trkpt>
      <trkpt lat="47.82039" lon="-3.27214">
        <ele>-11</ele>
        <time>2012-11-14T14:11:59</time>
      </trkpt>
      <trkpt lat="47.82039" lon="-3.27166">
        <ele>-13</ele>
        <time>2012-11-14T14:12:29</time>
      </trkpt>
      <trkpt lat="47.82039" lon="-3.27117">
        <ele>-16</ele>
        <time>2012-11-14T14:12:59</time>
      </trkpt>
      <trkpt lat="47.82033" lon="-3.27068">
        <ele>-16</ele>
        <time>2012-11-14T14:13:29</time>
      </trkpt>
      <trkpt lat="47.82027" lon="-3.27026">
        <ele>-14</ele>
        <time>2012-11-14T14:13:59</time>
      </trkpt>
      <trkpt lat="47.82028" lon="-3.26974">
        <ele>-14</ele>
        <time>2012-11-14T14:14:30</time>
      </trkpt>
      <trkpt lat="47.82028" lon="-3.26926">
        <ele>-13</ele>
        <time>2012-11-14T14:15:00</time>
      </trkpt>
      <trkpt lat="47.82028" lon="-3.26876">
        <ele>-11</ele>
        <time>2012-11-14T14:15:30</time>
      </trkpt>
      <trkpt lat="47.82029" lon="-3.26833">
        <ele>-10</ele>
        <time>2012-11-14T14:16:00</time>
      </trkpt>
      <trkpt lat="47.82034" lon="-3.2679">
        <ele>-12</ele>
        <time>2012-11-14T14:16:30</time>
      </trkpt>
      <trkpt lat="47.82035" lon="-3.26744">
        <ele>-15</ele>
        <time>2012-11-14T14:17:01</time>
      </trkpt>
      <trkpt lat="47.82034" lon="-3.2671">
        <ele>-14</ele>
        <time>2012-11-14T14:17:31</time>
      </trkpt>
      <trkpt lat="47.82033" lon="-3.26683">
        <ele>-19</ele>
        <time>2012-11-14T14:18:01</time>
      </trkpt>
      <trkpt lat="47.82036" lon="-3.26648">
        <ele>-24</ele>
        <time>2012-11-14T14:18:31</time>
      </trkpt>
      <trkpt lat="47.82043" lon="-3.26606">
        <ele>-27</ele>
        <time>2012-11-14T14:19:02</time>
      </trkpt>
      <trkpt lat="47.82033" lon="-3.26572">
        <ele>-28</ele>
        <time>2012-11-14T14:19:32</time>
      </trkpt>
      <trkpt lat="47.82042" lon="-3.2656">
        <ele>-32</ele>
        <time>2012-11-14T14:20:02</time>
      </trkpt>
      <trkpt lat="47.82044" lon="-3.26551">
        <ele>-33</ele>
        <time>2012-11-14T14:20:32</time>
      </trkpt>
      <trkpt lat="47.82045" lon="-3.26546">
        <ele>-34</ele>
        <time>2012-11-14T14:21:02</time>
      </trkpt>
      <trkpt lat="47.8203" lon="-3.26549">
        <ele>-28</ele>
        <time>2012-11-14T14:21:32</time>
      </trkpt>
      <trkpt lat="47.82024" lon="-3.26533">
        <ele>-27</ele>
        <time>2012-11-14T14:22:03</time>
      </trkpt>
      <trkpt lat="47.82034" lon="-3.26513">
        <ele>-27</ele>
        <time>2012-11-14T14:22:33</time>
      </trkpt>
      <trkpt lat="47.82053" lon="-3.26481">
        <ele>-29</ele>
        <time>2012-11-14T14:23:03</time>
      </trkpt>
      <trkpt lat="47.82069" lon="-3.26437">
        <ele>-29</ele>
        <time>2012-11-14T14:23:33</time>
      </trkpt>
      <trkpt lat="47.82078" lon="-3.26386">
        <ele>-28</ele>
        <time>2012-11-14T14:24:03</time>
      </trkpt>
      <trkpt lat="47.8208" lon="-3.2634">
        <ele>-31</ele>
        <time>2012-11-14T14:24:34</time>
      </trkpt>
      <trkpt lat="47.82078" lon="-3.26306">
        <ele>-32</ele>
        <time>2012-11-14T14:25:04</time>
      </trkpt>
      <trkpt lat="47.82082" lon="-3.26263">
        <ele>-34</ele>
        <time>2012-11-14T14:25:34</time>
      </trkpt>
      <trkpt lat="47.82081" lon="-3.26222">
        <ele>-38</ele>
        <time>2012-11-14T14:26:04</time>
      </trkpt>
      <trkpt lat="47.82084" lon="-3.26183">
        <ele>-42</ele>
        <time>2012-11-14T14:26:34</time>
      </trkpt>
      <trkpt lat="47.82081" lon="-3.26143">
        <ele>-45</ele>
        <time>2012-11-14T14:27:05</time>
      </trkpt>
      <trkpt lat="47.8209" lon="-3.26128">
        <ele>-45</ele>
        <time>2012-11-14T14:27:35</time>
      </trkpt>
      <trkpt lat="47.82085" lon="-3.26125">
        <ele>-48</ele>
        <time>2012-11-14T14:28:05</time>
      </trkpt>
      <trkpt lat="47.8208" lon="-3.26121">
        <ele>-49</ele>
        <time>2012-11-14T14:28:35</time>
      </trkpt>
      <trkpt lat="47.8208" lon="-3.26126">
        <ele>-48</ele>
        <time>2012-11-14T14:29:05</time>
      </trkpt>
      <trkpt lat="47.82082" lon="-3.26111">
        <ele>-48</ele>
        <time>2012-11-14T14:29:36</time>
      </trkpt>
      <trkpt lat="47.82079" lon="-3.26114">
        <ele>-48</ele>
        <time>2012-11-14T14:30:06</time>
      </trkpt>
      <trkpt lat="47.82076" lon="-3.26118">
        <ele>-47</ele>
        <time>2012-11-14T14:30:36</time>
      </trkpt>
      <trkpt lat="47.82075" lon="-3.26127">
        <ele>-48</ele>
        <time>2012-11-14T14:31:06</time>
      </trkpt>
      <trkpt lat="47.82076" lon="-3.26106">
        <ele>-48</ele>
        <time>2012-11-14T14:31:36</time>
      </trkpt>
      <trkpt lat="47.82089" lon="-3.26055">
        <ele>-49</ele>
        <time>2012-11-14T14:32:07</time>
      </trkpt>
      <trkpt lat="47.82077" lon="-3.26013">
        <ele>-49</ele>
        <time>2012-11-14T14:32:37</time>
      </trkpt>
      <trkpt lat="47.82061" lon="-3.25971">
        <ele>-49</ele>
        <time>2012-11-14T14:33:07</time>
      </trkpt>
      <trkpt lat="47.82053" lon="-3.25914">
        <ele>-51</ele>
        <time>2012-11-14T14:33:37</time>
      </trkpt>
      <trkpt lat="47.82051" lon="-3.25899">
        <ele>-50</ele>
        <time>2012-11-14T14:34:07</time>
      </trkpt>
      <trkpt lat="47.82054" lon="-3.25907">
        <ele>-50</ele>
        <time>2012-11-14T14:34:37</time>
      </trkpt>
      <trkpt lat="47.82071" lon="-3.25946">
        <ele>-51</ele>
        <time>2012-11-14T14:35:08</time>
      </trkpt>
      <trkpt lat="47.82085" lon="-3.25979">
        <ele>-51</ele>
        <time>2012-11-14T14:35:38</time>
      </trkpt>
      <trkpt lat="47.82103" lon="-3.25997">
        <ele>-50</ele>
        <time>2012-11-14T14:36:08</time>
      </trkpt>
      <trkpt lat="47.82135" lon="-3.25976">
        <ele>-51</ele>
        <time>2012-11-14T14:36:38</time>
      </trkpt>
      <trkpt lat="47.82158" lon="-3.25973">
        <ele>-50</ele>
        <time>2012-11-14T14:37:08</time>
      </trkpt>
      <trkpt lat="47.82171" lon="-3.26017">
        <ele>-52</ele>
        <time>2012-11-14T14:37:39</time>
      </trkpt>
      <trkpt lat="47.82178" lon="-3.26066">
        <ele>-52</ele>
        <time>2012-11-14T14:38:09</time>
      </trkpt>
      <trkpt lat="47.82184" lon="-3.26119">
        <ele>-53</ele>
        <time>2012-11-14T14:38:39</time>
      </trkpt>
      <trkpt lat="47.82185" lon="-3.26172">
        <ele>-52</ele>
        <time>2012-11-14T14:39:09</time>
      </trkpt>
      <trkpt lat="47.82185" lon="-3.26216">
        <ele>-52</ele>
        <time>2012-11-14T14:39:40</time>
      </trkpt>
      <trkpt lat="47.82186" lon="-3.2627">
        <ele>-52</ele>
        <time>2012-11-14T14:40:10</time>
      </trkpt>
      <trkpt lat="47.82189" lon="-3.26323">
        <ele>-53</ele>
        <time>2012-11-14T14:40:40</time>
      </trkpt>
      <trkpt lat="47.8219" lon="-3.26371">
        <ele>-52</ele>
        <time>2012-11-14T14:41:10</time>
      </trkpt>
      <trkpt lat="47.82177" lon="-3.26406">
        <ele>-53</ele>
        <time>2012-11-14T14:41:40</time>
      </trkpt>
      <trkpt lat="47.82157" lon="-3.26449">
        <ele>-54</ele>
        <time>2012-11-14T14:42:11</time>
      </trkpt>
      <trkpt lat="47.82146" lon="-3.26493">
        <ele>-54</ele>
        <time>2012-11-14T14:42:41</time>
      </trkpt>
      <trkpt lat="47.82152" lon="-3.26538">
        <ele>-53</ele>
        <time>2012-11-14T14:43:11</time>
      </trkpt>
      <trkpt lat="47.82172" lon="-3.26554">
        <ele>-51</ele>
        <time>2012-11-14T14:43:41</time>
      </trkpt>
      <trkpt lat="47.8219" lon="-3.26539">
        <ele>-49</ele>
        <time>2012-11-14T14:44:12</time>
      </trkpt>
      <trkpt lat="47.82215" lon="-3.265">
        <ele>-48</ele>
        <time>2012-11-14T14:44:42</time>
      </trkpt>
      <trkpt lat="47.82207" lon="-3.26513">
        <ele>-43</ele>
        <time>2012-11-14T14:45:12</time>
      </trkpt>
      <trkpt lat="47.8219" lon="-3.26539">
        <ele>-41</ele>
        <time>2012-11-14T14:45:42</time>
      </trkpt>
      <trkpt lat="47.82195" lon="-3.26563">
        <ele>-38</ele>
        <time>2012-11-14T14:46:13</time>
      </trkpt>
      <trkpt lat="47.82206" lon="-3.26574">
        <ele>-37</ele>
        <time>2012-11-14T14:46:43</time>
      </trkpt>
      <trkpt lat="47.82199" lon="-3.26616">
        <ele>-34</ele>
        <time>2012-11-14T14:47:13</time>
      </trkpt>
      <trkpt lat="47.82201" lon="-3.26659">
        <ele>-34</ele>
        <time>2012-11-14T14:47:43</time>
      </trkpt>
      <trkpt lat="47.82204" lon="-3.26698">
        <ele>-31</ele>
        <time>2012-11-14T14:48:13</time>
      </trkpt>
      <trkpt lat="47.82212" lon="-3.26741">
        <ele>-28</ele>
        <time>2012-11-14T14:48:44</time>
      </trkpt>
      <trkpt lat="47.82224" lon="-3.26794">
        <ele>-30</ele>
        <time>2012-11-14T14:49:14</time>
      </trkpt>
      <trkpt lat="47.82227" lon="-3.2685">
        <ele>-30</ele>
        <time>2012-11-14T14:49:44</time>
      </trkpt>
      <trkpt lat="47.82233" lon="-3.269">
        <ele>-31</ele>
        <time>2012-11-14T14:50:14</time>
      </trkpt>
      <trkpt lat="47.82242" lon="-3.26943">
        <ele>-32</ele>
        <time>2012-11-14T14:50:44</time>
      </trkpt>
      <trkpt lat="47.82249" lon="-3.26994">
        <ele>-35</ele>
        <time>2012-11-14T14:51:15</time>
      </trkpt>
      <trkpt lat="47.82245" lon="-3.27035">
        <ele>-38</ele>
        <time>2012-11-14T14:51:45</time>
      </trkpt>
      <trkpt lat="47.82242" lon="-3.27077">
        <ele>-43</ele>
        <time>2012-11-14T14:52:15</time>
      </trkpt>
      <trkpt lat="47.82249" lon="-3.27101">
        <ele>-47</ele>
        <time>2012-11-14T14:52:45</time>
      </trkpt>
      <trkpt lat="47.82261" lon="-3.27108">
        <ele>-46</ele>
        <time>2012-11-14T14:53:16</time>
      </trkpt>
      <trkpt lat="47.8226" lon="-3.27101">
        <ele>-46</ele>
        <time>2012-11-14T14:53:46</time>
      </trkpt>
      <trkpt lat="47.82262" lon="-3.27101">
        <ele>-46</ele>
        <time>2012-11-14T14:54:16</time>
      </trkpt>
      <trkpt lat="47.82257" lon="-3.27102">
        <ele>-46</ele>
        <time>2012-11-14T14:54:46</time>
      </trkpt>
      <trkpt lat="47.82257" lon="-3.27103">
        <ele>-46</ele>
        <time>2012-11-14T14:55:16</time>
      </trkpt>
      <trkpt lat="47.82258" lon="-3.27095">
        <ele>-47</ele>
        <time>2012-11-14T14:55:46</time>
      </trkpt>
      <trkpt lat="47.82256" lon="-3.27093">
        <ele>-47</ele>
        <time>2012-11-14T14:56:17</time>
      </trkpt>
      <trkpt lat="47.82267" lon="-3.27087">
        <ele>-47</ele>
        <time>2012-11-14T14:56:47</time>
      </trkpt>
      <trkpt lat="47.8226" lon="-3.2709">
        <ele>-47</ele>
        <time>2012-11-14T14:57:17</time>
      </trkpt>
      <trkpt lat="47.82257" lon="-3.27098">
        <ele>-46</ele>
        <time>2012-11-14T14:57:47</time>
      </trkpt>
      <trkpt lat="47.82255" lon="-3.27103">
        <ele>-47</ele>
        <time>2012-11-14T14:58:17</time>
      </trkpt>
      <trkpt lat="47.82257" lon="-3.27109">
        <ele>-48</ele>
        <time>2012-11-14T14:58:47</time>
      </trkpt>
      <trkpt lat="47.82255" lon="-3.27104">
        <ele>-47</ele>
        <time>2012-11-14T14:59:18</time>
      </trkpt>
      <trkpt lat="47.82256" lon="-3.27099">
        <ele>-48</ele>
        <time>2012-11-14T14:59:48</time>
      </trkpt>
      <trkpt lat="47.82263" lon="-3.27102">
        <ele>-46</ele>
        <time>2012-11-14T15:00:18</time>
      </trkpt>
      <trkpt lat="47.82263" lon="-3.27107">
        <ele>-47</ele>
        <time>2012-11-14T15:00:48</time>
      </trkpt>
      <trkpt lat="47.82258" lon="-3.27116">
        <ele>-46</ele>
        <time>2012-11-14T15:01:18</time>
      </trkpt>
      <trkpt lat="47.82272" lon="-3.27142">
        <ele>-42</ele>
        <time>2012-11-14T15:01:49</time>
      </trkpt>
      <trkpt lat="47.82286" lon="-3.27178">
        <ele>-39</ele>
        <time>2012-11-14T15:02:19</time>
      </trkpt>
      <trkpt lat="47.82304" lon="-3.27228">
        <ele>-36</ele>
        <time>2012-11-14T15:02:49</time>
      </trkpt>
      <trkpt lat="47.82322" lon="-3.27281">
        <ele>-36</ele>
        <time>2012-11-14T15:03:19</time>
      </trkpt>
      <trkpt lat="47.82345" lon="-3.27321">
        <ele>-34</ele>
        <time>2012-11-14T15:03:49</time>
      </trkpt>
      <trkpt lat="47.8238" lon="-3.27332">
        <ele>-31</ele>
        <time>2012-11-14T15:04:20</time>
      </trkpt>
      <trkpt lat="47.82409" lon="-3.27344">
        <ele>-30</ele>
        <time>2012-11-14T15:04:50</time>
      </trkpt>
      <trkpt lat="47.82441" lon="-3.27354">
        <ele>-28</ele>
        <time>2012-11-14T15:05:20</time>
      </trkpt>
      <trkpt lat="47.82481" lon="-3.27363">
        <ele>-28</ele>
        <time>2012-11-14T15:05:50</time>
      </trkpt>
      <trkpt lat="47.82518" lon="-3.27375">
        <ele>-29</ele>
        <time>2012-11-14T15:06:20</time>
      </trkpt>
      <trkpt lat="47.8255" lon="-3.27391">
        <ele>-31</ele>
        <time>2012-11-14T15:06:50</time>
      </trkpt>
      <trkpt lat="47.82586" lon="-3.27411">
        <ele>-31</ele>
        <time>2012-11-14T15:07:21</time>
      </trkpt>
      <trkpt lat="47.82592" lon="-3.2743">
        <ele>-32</ele>
        <time>2012-11-14T15:07:51</time>
      </trkpt>
      <trkpt lat="47.82579" lon="-3.27456">
        <ele>-36</ele>
        <time>2012-11-14T15:08:21</time>
      </trkpt>
      <trkpt lat="47.82576" lon="-3.27465">
        <ele>-37</ele>
        <time>2012-11-14T15:08:51</time>
      </trkpt>
      <trkpt lat="47.82576" lon="-3.27474">
        <ele>-37</ele>
        <time>2012-11-14T15:09:21</time>
      </trkpt>
      <trkpt lat="47.82566" lon="-3.27502">
        <ele>-39</ele>
        <time>2012-11-14T15:09:51</time>
      </trkpt>
      <trkpt lat="47.82552" lon="-3.27501">
        <ele>-40</ele>
        <time>2012-11-14T15:10:22</time>
      </trkpt>
      <trkpt lat="47.82535" lon="-3.27464">
        <ele>-42</ele>
        <time>2012-11-14T15:10:52</time>
      </trkpt>
      <trkpt lat="47.82493" lon="-3.27455">
        <ele>-44</ele>
        <time>2012-11-14T15:11:22</time>
      </trkpt>
      <trkpt lat="47.8246" lon="-3.27467">
        <ele>-46</ele>
        <time>2012-11-14T15:11:52</time>
      </trkpt>
      <trkpt lat="47.82424" lon="-3.27479">
        <ele>-49</ele>
        <time>2012-11-14T15:12:22</time>
      </trkpt>
      <trkpt lat="47.82384" lon="-3.2749">
        <ele>-49</ele>
        <time>2012-11-14T15:12:52</time>
      </trkpt>
      <trkpt lat="47.82345" lon="-3.27491">
        <ele>-51</ele>
        <time>2012-11-14T15:13:23</time>
      </trkpt>
      <trkpt lat="47.82312" lon="-3.27482">
        <ele>-52</ele>
        <time>2012-11-14T15:13:53</time>
      </trkpt>
      <trkpt lat="47.82281" lon="-3.275">
        <ele>-54</ele>
        <time>2012-11-14T15:14:23</time>
      </trkpt>
      <trkpt lat="47.82262" lon="-3.27551">
        <ele>-54</ele>
        <time>2012-11-14T15:14:53</time>
      </trkpt>
      <trkpt lat="47.82254" lon="-3.27607">
        <ele>-55</ele>
        <time>2012-11-14T15:15:23</time>
      </trkpt>
      <trkpt lat="47.82234" lon="-3.27665">
        <ele>-56</ele>
        <time>2012-11-14T15:15:54</time>
      </trkpt>
      <trkpt lat="47.82215" lon="-3.27712">
        <ele>-53</ele>
        <time>2012-11-14T15:16:24</time>
      </trkpt>
      <trkpt lat="47.82195" lon="-3.27753">
        <ele>-52</ele>
        <time>2012-11-14T15:16:54</time>
      </trkpt>
      <trkpt lat="47.82167" lon="-3.27771">
        <ele>-52</ele>
        <time>2012-11-14T15:17:24</time>
      </trkpt>
      <trkpt lat="47.82152" lon="-3.27797">
        <ele>-49</ele>
        <time>2012-11-14T15:17:54</time>
      </trkpt>
      <trkpt lat="47.82133" lon="-3.27824">
        <ele>-48</ele>
        <time>2012-11-14T15:18:25</time>
      </trkpt>
      <trkpt lat="47.82108" lon="-3.27842">
        <ele>-50</ele>
        <time>2012-11-14T15:18:55</time>
      </trkpt>
      <trkpt lat="47.82081" lon="-3.27861">
        <ele>-56</ele>
        <time>2012-11-14T15:19:25</time>
      </trkpt>
      <trkpt lat="47.82055" lon="-3.27889">
        <ele>-55</ele>
        <time>2012-11-14T15:19:55</time>
      </trkpt>
      <trkpt lat="47.82042" lon="-3.27929">
        <ele>-54</ele>
        <time>2012-11-14T15:20:25</time>
      </trkpt>
      <trkpt lat="47.82013" lon="-3.27965">
        <ele>-56</ele>
        <time>2012-11-14T15:20:55</time>
      </trkpt>
      <trkpt lat="47.81985" lon="-3.28013">
        <ele>-57</ele>
        <time>2012-11-14T15:21:25</time>
      </trkpt>
      <trkpt lat="47.81966" lon="-3.28047">
        <ele>-57</ele>
        <time>2012-11-14T15:21:56</time>
      </trkpt>
      <trkpt lat="47.81958" lon="-3.28092">
        <ele>-55</ele>
        <time>2012-11-14T15:22:26</time>
      </trkpt>
      <trkpt lat="47.81967" lon="-3.28135">
        <ele>-51</ele>
        <time>2012-11-14T15:22:56</time>
      </trkpt>
      <trkpt lat="47.81962" lon="-3.28181">
        <ele>-48</ele>
        <time>2012-11-14T15:23:26</time>
      </trkpt>
      <trkpt lat="47.81959" lon="-3.28217">
        <ele>-43</ele>
        <time>2012-11-14T15:23:56</time>
      </trkpt>
      <trkpt lat="47.81957" lon="-3.2825">
        <ele>-41</ele>
        <time>2012-11-14T15:24:27</time>
      </trkpt>
      <trkpt lat="47.81937" lon="-3.28284">
        <ele>-41</ele>
        <time>2012-11-14T15:24:57</time>
      </trkpt>
      <trkpt lat="47.81917" lon="-3.2833">
        <ele>-43</ele>
        <time>2012-11-14T15:25:27</time>
      </trkpt>
      <trkpt lat="47.81909" lon="-3.28379">
        <ele>-44</ele>
        <time>2012-11-14T15:25:57</time>
      </trkpt>
      <trkpt lat="47.8189" lon="-3.28414">
        <ele>-47</ele>
        <time>2012-11-14T15:26:27</time>
      </trkpt>
      <trkpt lat="47.81885" lon="-3.28446">
        <ele>-47</ele>
        <time>2012-11-14T15:26:57</time>
      </trkpt>
      <trkpt lat="47.81887" lon="-3.28454">
        <ele>-48</ele>
        <time>2012-11-14T15:27:28</time>
      </trkpt>
      <trkpt lat="47.81888" lon="-3.28453">
        <ele>-48</ele>
        <time>2012-11-14T15:27:58</time>
      </trkpt>
      <trkpt lat="47.81884" lon="-3.28466">
        <ele>-46</ele>
        <time>2012-11-14T15:28:28</time>
      </trkpt>
      <trkpt lat="47.81879" lon="-3.28503">
        <ele>-44</ele>
        <time>2012-11-14T15:28:58</time>
      </trkpt>
      <trkpt lat="47.81895" lon="-3.2854">
        <ele>-40</ele>
        <time>2012-11-14T15:29:28</time>
      </trkpt>
      <trkpt lat="47.81904" lon="-3.28585">
        <ele>-41</ele>
        <time>2012-11-14T15:29:58</time>
      </trkpt>
      <trkpt lat="47.81913" lon="-3.28629">
        <ele>-42</ele>
        <time>2012-11-14T15:30:29</time>
      </trkpt>
      <trkpt lat="47.81923" lon="-3.28677">
        <ele>-42</ele>
        <time>2012-11-14T15:30:59</time>
      </trkpt>
      <trkpt lat="47.81921" lon="-3.28729">
        <ele>-43</ele>
        <time>2012-11-14T15:31:29</time>
      </trkpt>
      <trkpt lat="47.81896" lon="-3.28773">
        <ele>-42</ele>
        <time>2012-11-14T15:31:59</time>
      </trkpt>
      <trkpt lat="47.81871" lon="-3.28811">
        <ele>-40</ele>
        <time>2012-11-14T15:32:29</time>
      </trkpt>
      <trkpt lat="47.81844" lon="-3.28851">
        <ele>-38</ele>
        <time>2012-11-14T15:32:59</time>
      </trkpt>
      <trkpt lat="47.8182" lon="-3.28882">
        <ele>-38</ele>
        <time>2012-11-14T15:33:30</time>
      </trkpt>
      <trkpt lat="47.81803" lon="-3.28859">
        <ele>-37</ele>
        <time>2012-11-14T15:34:00</time>
      </trkpt>
      <trkpt lat="47.81807" lon="-3.28856">
        <ele>-36</ele>
        <time>2012-11-14T15:34:30</time>
      </trkpt>
      <trkpt lat="47.81823" lon="-3.28839">
        <ele>-39</ele>
        <time>2012-11-14T15:35:00</time>
      </trkpt>
      <trkpt lat="47.81834" lon="-3.28812">
        <ele>-41</ele>
        <time>2012-11-14T15:35:30</time>
      </trkpt>
      <trkpt lat="47.81849" lon="-3.28776">
        <ele>-43</ele>
        <time>2012-11-14T15:36:01</time>
      </trkpt>
      <trkpt lat="47.81867" lon="-3.2873">
        <ele>-46</ele>
        <time>2012-11-14T15:36:31</time>
      </trkpt>
      <trkpt lat="47.81868" lon="-3.28676">
        <ele>-47</ele>
        <time>2012-11-14T15:37:01</time>
      </trkpt>
      <trkpt lat="47.8185" lon="-3.28657">
        <ele>-49</ele>
        <time>2012-11-14T15:37:31</time>
      </trkpt>
      <trkpt lat="47.81826" lon="-3.28671">
        <ele>-48</ele>
        <time>2012-11-14T15:38:01</time>
      </trkpt>
      <trkpt lat="47.81832" lon="-3.2868">
        <ele>-48</ele>
        <time>2012-11-14T15:38:31</time>
      </trkpt>
      <trkpt lat="47.81819" lon="-3.28658">
        <ele>-46</ele>
        <time>2012-11-14T15:39:02</time>
      </trkpt>
      <trkpt lat="47.81795" lon="-3.28669">
        <ele>-40</ele>
        <time>2012-11-14T15:39:32</time>
      </trkpt>
      <trkpt lat="47.81773" lon="-3.28693">
        <ele>-37</ele>
        <time>2012-11-14T15:40:02</time>
      </trkpt>
      <trkpt lat="47.81743" lon="-3.28703">
        <ele>-37</ele>
        <time>2012-11-14T15:40:32</time>
      </trkpt>
      <trkpt lat="47.81709" lon="-3.28714">
        <ele>-38</ele>
        <time>2012-11-14T15:41:02</time>
      </trkpt>
      <trkpt lat="47.81674" lon="-3.28714">
        <ele>-41</ele>
        <time>2012-11-14T15:41:32</time>
      </trkpt>
      <trkpt lat="47.81643" lon="-3.28699">
        <ele>-41</ele>
        <time>2012-11-14T15:42:03</time>
      </trkpt>
      <trkpt lat="47.81612" lon="-3.28667">
        <ele>-45</ele>
        <time>2012-11-14T15:42:33</time>
      </trkpt>
      <trkpt lat="47.81587" lon="-3.28639">
        <ele>-47</ele>
        <time>2012-11-14T15:43:03</time>
      </trkpt>
      <trkpt lat="47.81548" lon="-3.28617">
        <ele>-48</ele>
        <time>2012-11-14T15:43:33</time>
      </trkpt>
      <trkpt lat="47.81511" lon="-3.28604">
        <ele>-43</ele>
        <time>2012-11-14T15:44:03</time>
      </trkpt>
      <trkpt lat="47.81478" lon="-3.28603">
        <ele>-41</ele>
        <time>2012-11-14T15:44:33</time>
      </trkpt>
      <trkpt lat="47.81451" lon="-3.28593">
        <ele>-38</ele>
        <time>2012-11-14T15:45:04</time>
      </trkpt>
      <trkpt lat="47.81428" lon="-3.28587">
        <ele>-33</ele>
        <time>2012-11-14T15:45:34</time>
      </trkpt>
      <trkpt lat="47.81404" lon="-3.28583">
        <ele>-28</ele>
        <time>2012-11-14T15:46:04</time>
      </trkpt>
      <trkpt lat="47.81386" lon="-3.28574">
        <ele>-26</ele>
        <time>2012-11-14T15:46:34</time>
      </trkpt>
      <trkpt lat="47.81367" lon="-3.28575">
        <ele>-22</ele>
        <time>2012-11-14T15:47:04</time>
      </trkpt>
      <trkpt lat="47.81347" lon="-3.28586">
        <ele>-19</ele>
        <time>2012-11-14T15:47:34</time>
      </trkpt>
      <trkpt lat="47.8134" lon="-3.28599">
        <ele>-17</ele>
        <time>2012-11-14T15:48:05</time>
      </trkpt>
      <trkpt lat="47.81334" lon="-3.28605">
        <ele>-16</ele>
        <time>2012-11-14T15:48:35</time>
      </trkpt>
      <trkpt lat="47.81311" lon="-3.28598">
        <ele>-17</ele>
        <time>2012-11-14T15:49:05</time>
      </trkpt>
      <trkpt lat="47.81283" lon="-3.28598">
        <ele>-20</ele>
        <time>2012-11-14T15:49:35</time>
      </trkpt>
      <trkpt lat="47.81255" lon="-3.28598">
        <ele>-23</ele>
        <time>2012-11-14T15:50:05</time>
      </trkpt>
      <trkpt lat="47.81224" lon="-3.28605">
        <ele>-25</ele>
        <time>2012-11-14T15:50:36</time>
      </trkpt>
      <trkpt lat="47.81196" lon="-3.28615">
        <ele>-28</ele>
        <time>2012-11-14T15:51:06</time>
      </trkpt>
      <trkpt lat="47.81165" lon="-3.28631">
        <ele>-29</ele>
        <time>2012-11-14T15:51:36</time>
      </trkpt>
      <trkpt lat="47.81131" lon="-3.28639">
        <ele>-32</ele>
        <time>2012-11-14T15:52:06</time>
      </trkpt>
      <trkpt lat="47.81112" lon="-3.28601">
        <ele>-30</ele>
        <time>2012-11-14T15:52:36</time>
      </trkpt>
      <trkpt lat="47.811" lon="-3.28554">
        <ele>-30</ele>
        <time>2012-11-14T15:53:07</time>
      </trkpt>
      <trkpt lat="47.81073" lon="-3.28516">
        <ele>-27</ele>
        <time>2012-11-14T15:53:37</time>
      </trkpt>
      <trkpt lat="47.81038" lon="-3.28491">
        <ele>-23</ele>
        <time>2012-11-14T15:54:07</time>
      </trkpt>
      <trkpt lat="47.81" lon="-3.28474">
        <ele>-20</ele>
        <time>2012-11-14T15:54:37</time>
      </trkpt>
      <trkpt lat="47.80962" lon="-3.28457">
        <ele>-22</ele>
        <time>2012-11-14T15:55:07</time>
      </trkpt>
      <trkpt lat="47.80924" lon="-3.28441">
        <ele>-22</ele>
        <time>2012-11-14T15:55:37</time>
      </trkpt>
      <trkpt lat="47.80888" lon="-3.28435">
        <ele>-23</ele>
        <time>2012-11-14T15:56:08</time>
      </trkpt>
      <trkpt lat="47.80851" lon="-3.2843">
        <ele>-26</ele>
        <time>2012-11-14T15:56:38</time>
      </trkpt>
      <trkpt lat="47.80816" lon="-3.28411">
        <ele>-32</ele>
        <time>2012-11-14T15:57:08</time>
      </trkpt>
      <trkpt lat="47.80779" lon="-3.28403">
        <ele>-35</ele>
        <time>2012-11-14T15:57:38</time>
      </trkpt>
      <trkpt lat="47.80743" lon="-3.28395">
        <ele>-40</ele>
        <time>2012-11-14T15:58:08</time>
      </trkpt>
      <trkpt lat="47.80712" lon="-3.28367">
        <ele>-44</ele>
        <time>2012-11-14T15:58:39</time>
      </trkpt>
      <trkpt lat="47.80678" lon="-3.28355">
        <ele>-49</ele>
        <time>2012-11-14T15:59:09</time>
      </trkpt>
      <trkpt lat="47.8065" lon="-3.28363">
        <ele>-52</ele>
        <time>2012-11-14T15:59:39</time>
      </trkpt>
      <trkpt lat="47.80624" lon="-3.28369">
        <ele>-55</ele>
        <time>2012-11-14T16:00:09</time>
      </trkpt>
      <trkpt lat="47.80594" lon="-3.28336">
        <ele>-56</ele>
        <time>2012-11-14T16:00:39</time>
      </trkpt>
      <trkpt lat="47.80555" lon="-3.28334">
        <ele>-56</ele>
        <time>2012-11-14T16:01:09</time>
      </trkpt>
      <trkpt lat="47.80513" lon="-3.28337">
        <ele>-56</ele>
        <time>2012-11-14T16:01:40</time>
      </trkpt>
      <trkpt lat="47.80477" lon="-3.2832">
        <ele>-56</ele>
        <time>2012-11-14T16:02:10</time>
      </trkpt>
      <trkpt lat="47.80448" lon="-3.28284">
        <ele>-56</ele>
        <time>2012-11-14T16:02:40</time>
      </trkpt>
      <trkpt lat="47.80417" lon="-3.2825">
        <ele>-55</ele>
        <time>2012-11-14T16:03:10</time>
      </trkpt>
      <trkpt lat="47.80389" lon="-3.2821">
        <ele>-56</ele>
        <time>2012-11-14T16:03:41</time>
      </trkpt>
      <trkpt lat="47.80368" lon="-3.28173">
        <ele>-56</ele>
        <time>2012-11-14T16:04:11</time>
      </trkpt>
      <trkpt lat="47.80346" lon="-3.2813">
        <ele>-56</ele>
        <time>2012-11-14T16:04:41</time>
      </trkpt>
      <trkpt lat="47.80352" lon="-3.28119">
        <ele>-55</ele>
        <time>2012-11-14T16:05:11</time>
      </trkpt>
      <trkpt lat="47.80386" lon="-3.28111">
        <ele>-54</ele>
        <time>2012-11-14T16:05:41</time>
      </trkpt>
      <trkpt lat="47.80411" lon="-3.28125">
        <ele>-55</ele>
        <time>2012-11-14T16:06:11</time>
      </trkpt>
      <trkpt lat="47.80431" lon="-3.28162">
        <ele>-55</ele>
        <time>2012-11-14T16:06:42</time>
      </trkpt>
      <trkpt lat="47.80456" lon="-3.28175">
        <ele>-57</ele>
        <time>2012-11-14T16:07:12</time>
      </trkpt>
      <trkpt lat="47.80473" lon="-3.2819">
        <ele>-56</ele>
        <time>2012-11-14T16:07:34</time>
      </trkpt>
    </trkseg>
  </trk>
</gpx>